Time;durP1;ratioP1;P1;durP2;ratioP2;P2;SDS_P1;SDS_P2;PMS_P1;PMS_P2;Temp;Humidity;BMP_temperature;BMP_pressure;BME280_temperature;BME280_humidity;BME280_pressure;Samples;Min_cycle;Max_cycle;Signal;HPM_P1;HPM_P2
2024/02/26 00:01:19;;;;;;;7.20;3.33;;;8.40;96.70;;;;;;4983714;28;20070;-68
2024/02/26 00:03:50;;;;;;;5.93;3.90;;;8.50;96.70;;;;;;4985775;28;20065;-69
2024/02/26 00:06:20;;;;;;;6.15;3.80;;;8.40;96.70;;;;;;4989026;28;20133;-68
2024/02/26 00:08:51;;;;;;;7.05;3.50;;;8.50;96.70;;;;;;4983128;28;20610;-68
2024/02/26 00:11:20;;;;;;;6.03;3.72;;;8.40;96.70;;;;;;4987427;28;20392;-68
2024/02/26 00:13:50;;;;;;;8.10;3.75;;;8.40;96.70;;;;;;4974026;28;20535;-68
2024/02/26 00:16:20;;;;;;;4.70;3.10;;;8.40;96.70;;;;;;4999221;28;20529;-68
2024/02/26 00:18:52;;;;;;;6.03;3.80;;;8.30;96.70;;;;;;5003397;28;20046;-68
2024/02/26 00:21:22;;;;;;;5.38;3.47;;;8.40;96.70;;;;;;4984202;28;20054;-68
2024/02/26 00:23:53;;;;;;;5.65;3.70;;;8.40;96.70;;;;;;4974835;28;20047;-68
2024/02/26 00:26:22;;;;;;;4.80;3.33;;;8.30;96.70;;;;;;5001773;28;20149;-68
2024/02/26 00:28:53;;;;;;;7.60;3.70;;;8.40;96.70;;;;;;4965354;28;20042;-67
2024/02/26 00:31:22;;;;;;;5.95;3.45;;;8.40;96.70;;;;;;4969028;28;20055;-67
2024/02/26 00:33:53;;;;;;;6.40;3.90;;;8.30;96.70;;;;;;4966106;28;20050;-68
2024/02/26 00:36:23;;;;;;;6.43;3.53;;;8.30;96.70;;;;;;4970126;28;20050;-68
2024/02/26 00:38:54;;;;;;;5.47;3.33;;;8.20;96.70;;;;;;4981075;28;20529;-68
2024/02/26 00:41:24;;;;;;;5.07;3.17;;;8.20;96.70;;;;;;4973753;28;20941;-68
2024/02/26 00:43:54;;;;;;;5.80;3.22;;;8.30;96.70;;;;;;4966137;28;20734;-68
2024/02/26 00:46:24;;;;;;;5.68;3.33;;;8.30;96.70;;;;;;4982139;28;20066;-68
2024/02/26 00:48:54;;;;;;;5.07;3.25;;;8.30;96.70;;;;;;4974973;28;20145;-68
2024/02/26 00:51:23;;;;;;;4.30;3.42;;;8.20;96.70;;;;;;4995595;28;20051;-68
2024/02/26 00:53:55;;;;;;;3.88;3.10;;;8.20;96.70;;;;;;4984073;28;20139;-68
2024/02/26 00:56:25;;;;;;;7.13;3.25;;;8.20;96.70;;;;;;4986434;28;20050;-68
2024/02/26 00:58:55;;;;;;;5.47;3.60;;;8.20;96.70;;;;;;4976372;28;20105;-68
2024/02/26 01:01:24;;;;;;;4.43;3.10;;;8.20;96.70;;;;;;4968730;28;20577;-68
2024/02/26 01:03:54;;;;;;;5.03;3.40;;;8.20;96.70;;;;;;4977908;28;20154;-68
2024/02/26 01:06:24;;;;;;;5.70;4.00;;;8.20;96.70;;;;;;4979642;28;20154;-68
2024/02/26 01:08:55;;;;;;;5.00;3.47;;;8.20;96.70;;;;;;4964371;28;20062;-68
2024/02/26 01:11:24;;;;;;;5.80;3.65;;;8.10;96.70;;;;;;4963013;28;20046;-68
2024/02/26 01:13:56;;;;;;;6.55;3.13;;;8.10;96.70;;;;;;4983022;28;20531;-68
2024/02/26 01:16:28;;;;;;;4.40;3.22;;;8.00;96.70;;;;;;4996504;28;20089;-68
2024/02/26 01:19:00;;;;;;;4.15;2.85;;;8.00;96.70;;;;;;4974376;28;20682;-67
2024/02/26 01:21:33;;;;;;;5.35;3.50;;;8.00;96.70;;;;;;4984627;28;20130;-68
2024/02/26 01:24:05;;;;;;;4.80;3.42;;;8.00;96.70;;;;;;4982933;28;20137;-68
2024/02/26 01:26:35;;;;;;;5.68;3.47;;;8.10;96.70;;;;;;4995343;28;20054;-68
2024/02/26 01:29:04;;;;;;;5.45;3.53;;;8.00;96.70;;;;;;4985587;28;20050;-68
2024/02/26 01:31:34;;;;;;;6.88;3.50;;;8.10;96.70;;;;;;4988619;28;20046;-68
2024/02/26 01:34:04;;;;;;;5.03;3.45;;;8.10;96.70;;;;;;4972061;28;20054;-68
2024/02/26 01:36:34;;;;;;;5.45;3.45;;;8.10;96.70;;;;;;4996055;28;20053;-68
2024/02/26 01:39:04;;;;;;;4.93;3.20;;;8.10;96.70;;;;;;5001728;28;20065;-68
2024/02/26 01:41:33;;;;;;;4.38;3.30;;;8.10;96.70;;;;;;4985960;28;20057;-67
2024/02/26 01:44:04;;;;;;;4.68;3.60;;;8.00;96.70;;;;;;4985655;28;20054;-68
2024/02/26 01:46:36;;;;;;;7.72;3.70;;;8.00;96.70;;;;;;4964505;28;20124;-68
2024/02/26 01:49:08;;;;;;;8.02;3.53;;;7.90;96.70;;;;;;4989848;28;20055;-68
2024/02/26 01:51:39;;;;;;;5.13;3.63;;;7.90;96.70;;;;;;4980451;28;20050;-68
2024/02/26 01:54:13;;;;;;;5.70;3.65;;;7.90;96.70;;;;;;4977544;28;20145;-68
2024/02/26 01:56:42;;;;;;;4.90;3.15;;;7.90;96.70;;;;;;4985285;28;20062;-68
2024/02/26 01:59:11;;;;;;;5.40;2.70;;;7.90;96.70;;;;;;4973786;28;20125;-68
2024/02/26 02:01:48;;;;;;;4.40;2.60;;;7.90;96.70;;;;;;4981722;28;20110;-67
2024/02/26 02:04:18;;;;;;;3.83;2.63;;;7.90;96.70;;;;;;4985832;28;20065;-68
2024/02/26 02:06:49;;;;;;;5.22;2.22;;;7.90;96.70;;;;;;4985613;28;20054;-68
2024/02/26 02:09:20;;;;;;;2.75;2.10;;;7.90;96.70;;;;;;4969022;28;20050;-68
2024/02/26 02:11:49;;;;;;;2.90;2.08;;;8.00;96.70;;;;;;4977794;28;20105;-68
2024/02/26 02:14:20;;;;;;;4.97;2.30;;;8.00;96.70;;;;;;4975658;28;20046;-69
2024/02/26 02:16:49;;;;;;;3.33;2.00;;;8.00;96.70;;;;;;4976534;28;20085;-68
2024/02/26 02:19:19;;;;;;;3.33;2.00;;;8.00;96.70;;;;;;4979366;28;20462;-68
2024/02/26 02:21:50;;;;;;;2.30;1.85;;;8.00;96.70;;;;;;5001261;28;20042;-68
2024/02/26 02:24:20;;;;;;;3.17;1.85;;;8.00;96.70;;;;;;4960016;28;20515;-67
2024/02/26 02:26:51;;;;;;;4.40;2.05;;;8.00;96.70;;;;;;4979765;28;20050;-68
2024/02/26 02:29:21;;;;;;;3.00;1.88;;;8.10;96.70;;;;;;5002178;28;20058;-68
2024/02/26 02:31:50;;;;;;;2.65;1.80;;;8.10;96.70;;;;;;5000671;28;20048;-68
2024/02/26 02:34:19;;;;;;;3.50;2.15;;;8.10;96.70;;;;;;4968910;28;20058;-68
2024/02/26 02:36:56;;;;;;;4.05;1.42;;;8.10;96.70;;;;;;4960237;28;20150;-68
2024/02/26 02:39:25;;;;;;;3.97;1.88;;;8.10;96.70;;;;;;4977343;28;20050;-67
2024/02/26 02:41:55;;;;;;;3.72;1.80;;;8.20;96.70;;;;;;4976389;28;20411;-68
2024/02/26 02:44:24;;;;;;;2.72;1.48;;;8.20;96.70;;;;;;4979003;28;20055;-67
2024/02/26 02:46:55;;;;;;;2.25;1.80;;;8.20;96.70;;;;;;4975390;28;20046;-68
2024/02/26 02:49:24;;;;;;;3.55;1.98;;;8.20;96.70;;;;;;4977865;28;20066;-67
2024/02/26 02:51:57;;;;;;;2.80;1.70;;;8.30;96.70;;;;;;4972132;28;20108;-68
2024/02/26 02:54:27;;;;;;;4.20;2.40;;;8.30;96.70;;;;;;4980922;28;20058;-68
2024/02/26 02:56:56;;;;;;;3.70;2.30;;;8.20;96.70;;;;;;4959224;28;20062;-68
2024/02/26 02:59:26;;;;;;;4.20;2.28;;;8.20;96.70;;;;;;5006427;28;20061;-68
2024/02/26 03:01:54;;;;;;;3.67;1.70;;;8.20;96.70;;;;;;4978381;28;20047;-67
2024/02/26 03:04:23;;;;;;;3.20;2.00;;;8.20;96.70;;;;;;4980988;28;20609;-67
2024/02/26 03:06:52;;;;;;;2.80;1.88;;;8.30;96.70;;;;;;4979316;28;20607;-68
2024/02/26 03:09:23;;;;;;;2.63;2.00;;;8.30;96.70;;;;;;4984288;28;20082;-67
2024/02/26 03:11:52;;;;;;;3.83;1.90;;;8.40;96.70;;;;;;4981537;28;20050;-67
2024/02/26 03:14:21;;;;;;;2.38;1.80;;;8.30;96.70;;;;;;4982640;28;20038;-68
2024/02/26 03:16:50;;;;;;;3.28;1.85;;;8.30;96.70;;;;;;4964644;28;20047;-67
2024/02/26 03:19:18;;;;;;;3.78;2.33;;;8.30;96.70;;;;;;4984148;28;20464;-68
2024/02/26 03:21:48;;;;;;;3.45;2.25;;;8.30;96.70;;;;;;4999333;28;20058;-68
2024/02/26 03:24:18;;;;;;;3.20;2.20;;;8.30;96.70;;;;;;4984198;28;20061;-68
2024/02/26 03:26:49;;;;;;;4.93;2.38;;;8.20;96.70;;;;;;4968823;28;20047;-68
2024/02/26 03:29:20;;;;;;;3.80;2.25;;;8.20;96.70;;;;;;4992796;28;20051;-68
2024/02/26 03:31:49;;;;;;;6.45;2.42;;;8.20;96.70;;;;;;4968843;28;20050;-68
2024/02/26 03:34:19;;;;;;;3.55;2.40;;;8.20;96.70;;;;;;4958832;28;20567;-68
2024/02/26 03:36:49;;;;;;;3.45;2.05;;;8.20;96.70;;;;;;4968163;28;20132;-67
2024/02/26 03:39:20;;;;;;;2.70;1.73;;;8.30;96.70;;;;;;4969684;28;20050;-67
2024/02/26 03:41:51;;;;;;;2.92;2.10;;;8.30;96.70;;;;;;4984209;28;20050;-68
2024/02/26 03:44:20;;;;;;;3.17;1.95;;;8.30;96.70;;;;;;4987206;28;20105;-67
2024/02/26 03:46:49;;;;;;;3.88;1.83;;;8.30;96.70;;;;;;4992567;28;20066;-68
2024/02/26 03:49:19;;;;;;;2.42;1.58;;;8.30;96.70;;;;;;4990340;28;20054;-68
2024/02/26 03:51:47;;;;;;;3.80;1.73;;;8.30;96.70;;;;;;4986938;28;20146;-66
2024/02/26 03:54:19;;;;;;;2.45;1.83;;;8.40;96.70;;;;;;4993355;28;20065;-67
2024/02/26 03:56:50;;;;;;;2.53;1.73;;;8.30;96.70;;;;;;4982574;28;20514;-67
2024/02/26 03:59:20;;;;;;;4.25;2.00;;;8.30;96.70;;;;;;4988766;28;20133;-68
2024/02/26 04:01:49;;;;;;;3.60;1.75;;;8.30;96.70;;;;;;4974579;28;20185;-68
2024/02/26 04:04:18;;;;;;;3.28;1.63;;;8.30;96.70;;;;;;4991644;28;20052;-68
2024/02/26 04:06:48;;;;;;;2.70;1.90;;;8.30;96.70;;;;;;4986815;28;20057;-68
2024/02/26 04:09:17;;;;;;;5.75;1.85;;;8.30;96.70;;;;;;4976248;28;20093;-68
2024/02/26 04:11:47;;;;;;;3.03;1.75;;;8.30;96.70;;;;;;4984558;28;20565;-67
2024/02/26 04:14:17;;;;;;;3.30;1.73;;;8.30;96.70;;;;;;4992150;28;20060;-68
2024/02/26 04:16:47;;;;;;;2.20;1.67;;;8.30;96.70;;;;;;4967910;28;20173;-67
2024/02/26 04:19:16;;;;;;;3.00;1.60;;;8.40;96.70;;;;;;4983562;28;20074;-68
2024/02/26 04:21:47;;;;;;;2.45;1.70;;;8.40;96.70;;;;;;4969236;28;20072;-68
2024/02/26 04:24:16;;;;;;;2.47;1.40;;;8.40;96.70;;;;;;4970897;28;20069;-68
2024/02/26 04:26:47;;;;;;;3.63;1.77;;;8.40;96.70;;;;;;4976995;28;20055;-68
2024/02/26 04:29:20;;;;;;;3.92;1.70;;;8.40;96.70;;;;;;4978510;28;20137;-68
2024/02/26 04:31:48;;;;;;;2.47;1.40;;;8.50;96.70;;;;;;4987649;28;20408;-67
2024/02/26 04:34:18;;;;;;;3.38;1.75;;;8.40;96.70;;;;;;4988502;28;20767;-68
2024/02/26 04:36:47;;;;;;;3.63;1.90;;;8.50;96.70;;;;;;4979686;28;20061;-68
2024/02/26 04:39:18;;;;;;;3.15;1.77;;;8.50;96.70;;;;;;4973257;28;20056;-67
2024/02/26 04:41:48;;;;;;;3.42;1.83;;;8.50;96.70;;;;;;4996050;28;20042;-68
2024/02/26 04:44:20;;;;;;;3.83;1.77;;;8.50;96.70;;;;;;5003483;28;20054;-68
2024/02/26 04:46:50;;;;;;;3.35;1.60;;;8.50;96.70;;;;;;4986347;28;20722;-67
2024/02/26 04:49:21;;;;;;;3.55;1.58;;;8.50;96.70;;;;;;4978890;28;20066;-67
2024/02/26 04:51:49;;;;;;;3.50;1.90;;;8.50;96.70;;;;;;4999581;28;20459;-67
2024/02/26 04:54:18;;;;;;;4.07;1.80;;;8.60;96.70;;;;;;4982557;28;20127;-67
2024/02/26 04:56:46;;;;;;;3.17;1.50;;;8.60;96.70;;;;;;4975627;28;20142;-68
2024/02/26 04:59:15;;;;;;;2.90;1.60;;;8.60;96.70;;;;;;4971155;28;20047;-68
2024/02/26 05:01:45;;;;;;;2.88;1.77;;;8.60;96.70;;;;;;4984543;28;20057;-68
2024/02/26 05:04:14;;;;;;;2.60;1.35;;;8.60;96.70;;;;;;4980138;28;20054;-68
2024/02/26 05:06:43;;;;;;;2.53;1.65;;;8.60;96.70;;;;;;4991967;28;20439;-68
2024/02/26 05:09:12;;;;;;;3.78;1.60;;;8.60;96.70;;;;;;4992299;28;20058;-67
2024/02/26 05:11:41;;;;;;;6.72;1.67;;;8.60;96.70;;;;;;4962070;28;20054;-67
2024/02/26 05:14:11;;;;;;;2.83;1.70;;;8.60;96.70;;;;;;4962630;28;20516;-68
2024/02/26 05:16:40;;;;;;;3.38;1.50;;;8.60;96.70;;;;;;4981275;28;20061;-68
2024/02/26 05:19:13;;;;;;;3.55;1.85;;;8.50;96.70;;;;;;4997011;28;20054;-68
2024/02/26 05:21:43;;;;;;;2.95;2.20;;;8.50;96.70;;;;;;4979109;28;20149;-68
2024/02/26 05:24:13;;;;;;;2.47;1.65;;;8.60;96.70;;;;;;4996053;28;20054;-68
2024/02/26 05:26:48;;;;;;;4.30;1.90;;;8.60;96.70;;;;;;4993694;28;20061;-68
2024/02/26 05:29:16;;;;;;;2.60;1.52;;;8.60;96.70;;;;;;4957199;28;20058;-67
2024/02/26 05:31:45;;;;;;;2.58;1.83;;;8.60;96.70;;;;;;4989331;28;20053;-68
2024/02/26 05:34:16;;;;;;;3.35;1.60;;;8.60;96.70;;;;;;4987231;28;20046;-68
2024/02/26 05:36:45;;;;;;;1.95;1.50;;;8.60;96.70;;;;;;4966071;28;20046;-67
2024/02/26 05:39:17;;;;;;;4.97;1.73;;;8.50;96.70;;;;;;4985098;28;20046;-68
2024/02/26 05:41:49;;;;;;;3.13;1.60;;;8.60;96.70;;;;;;4982088;28;20072;-68
2024/02/26 05:44:19;;;;;;;1.95;1.40;;;8.60;96.70;;;;;;4976255;28;20849;-68
2024/02/26 05:46:48;;;;;;;3.13;1.40;;;8.60;96.70;;;;;;4982558;28;20061;-68
2024/02/26 05:49:18;;;;;;;3.20;1.67;;;8.60;96.70;;;;;;4960462;28;20141;-68
2024/02/26 05:51:48;;;;;;;2.83;1.63;;;8.70;96.70;;;;;;4973224;28;20061;-68
2024/02/26 05:54:17;;;;;;;2.15;1.00;;;8.70;96.70;;;;;;4996683;28;20042;-66
2024/02/26 05:56:47;;;;;;;2.22;1.20;;;8.60;96.70;;;;;;5003106;28;20793;-69
2024/02/26 05:59:15;;;;;;;2.65;1.30;;;8.70;96.70;;;;;;4970075;28;20058;-68
2024/02/26 06:01:44;;;;;;;3.00;1.30;;;8.80;96.70;;;;;;4979831;28;20081;-67
2024/02/26 06:04:12;;;;;;;2.42;1.13;;;8.80;96.70;;;;;;4975022;28;20079;-67
2024/02/26 06:06:45;;;;;;;2.00;1.10;;;8.80;96.70;;;;;;4969476;28;20057;-68
2024/02/26 06:09:15;;;;;;;2.30;1.23;;;8.80;96.70;;;;;;4987244;28;20054;-68
2024/02/26 06:11:45;;;;;;;2.13;1.02;;;8.80;96.70;;;;;;4987210;28;20050;-67
2024/02/26 06:14:18;;;;;;;3.60;1.33;;;8.90;96.70;;;;;;4984237;28;20137;-68
2024/02/26 06:16:48;;;;;;;3.50;1.13;;;8.90;96.70;;;;;;4995664;28;20080;-67
2024/02/26 06:19:17;;;;;;;1.70;1.00;;;8.90;96.70;;;;;;4993261;28;20050;-67
2024/02/26 06:21:48;;;;;;;1.85;1.08;;;8.90;96.70;;;;;;4984974;28;20467;-66
2024/02/26 06:24:17;;;;;;;1.67;0.95;;;8.90;96.70;;;;;;4976926;28;20944;-67
2024/02/26 06:26:47;;;;;;;2.88;1.10;;;8.90;96.70;;;;;;4970768;28;20046;-68
2024/02/26 06:29:20;;;;;;;1.92;1.10;;;8.90;96.70;;;;;;4983770;28;20046;-67
2024/02/26 06:31:51;;;;;;;3.42;1.10;;;8.90;96.70;;;;;;4984715;28;20058;-67
2024/02/26 06:34:21;;;;;;;2.35;0.98;;;8.80;96.70;;;;;;4962571;28;20054;-68
2024/02/26 06:36:54;;;;;;;3.05;1.00;;;8.80;96.70;;;;;;4988746;28;20571;-68
2024/02/26 06:39:23;;;;;;;2.38;1.10;;;8.80;96.70;;;;;;4983587;28;20046;-70
2024/02/26 06:42:00;;;;;;;2.15;1.15;;;8.80;96.70;;;;;;4982464;28;20137;-69
2024/02/26 06:44:31;;;;;;;7.05;3.63;;;8.90;96.70;;;;;;4977963;28;20059;-68
2024/02/26 06:47:04;;;;;;;9.15;3.90;;;8.90;96.70;;;;;;4965994;28;20085;-69
2024/02/26 06:49:33;;;;;;;4.32;2.72;;;8.80;96.70;;;;;;4993137;28;20063;-69
2024/02/26 06:52:06;;;;;;;2.83;1.80;;;8.80;96.70;;;;;;4985152;28;20141;-69
2024/02/26 06:54:35;;;;;;;3.80;1.50;;;8.80;96.70;;;;;;4980610;28;20133;-69
2024/02/26 06:57:05;;;;;;;3.83;1.50;;;8.90;96.70;;;;;;4985615;28;20042;-69
2024/02/26 06:59:35;;;;;;;2.55;1.13;;;9.00;96.70;;;;;;4967624;28;20077;-68
2024/02/26 07:02:05;;;;;;;2.83;1.25;;;8.90;96.70;;;;;;4983344;28;20058;-69
2024/02/26 07:04:35;;;;;;;2.55;1.33;;;8.90;96.70;;;;;;4971164;28;20050;-68
2024/02/26 07:07:07;;;;;;;2.22;1.38;;;8.90;96.70;;;;;;4967680;28;20050;-68
2024/02/26 07:09:39;;;;;;;2.63;1.60;;;8.90;96.70;;;;;;4968559;28;20503;-69
2024/02/26 07:12:08;;;;;;;2.10;1.13;;;9.00;96.70;;;;;;4983696;28;20101;-68
2024/02/26 07:14:40;;;;;;;2.05;1.55;;;9.00;96.70;;;;;;4985293;28;20729;-68
2024/02/26 07:17:11;;;;;;;2.17;1.13;;;9.10;96.70;;;;;;4968652;28;20054;-67
2024/02/26 07:19:41;;;;;;;1.48;0.90;;;9.10;96.70;;;;;;4962354;28;20068;-66
2024/02/26 07:22:14;;;;;;;3.03;0.90;;;9.10;96.70;;;;;;4969368;28;20054;-68
2024/02/26 07:24:45;;;;;;;5.78;1.08;;;9.20;96.70;;;;;;4972941;28;20046;-67
2024/02/26 07:27:17;;;;;;;3.72;1.27;;;9.20;96.70;;;;;;4964542;28;20059;-67
2024/02/26 07:29:49;;;;;;;2.65;1.10;;;9.20;96.70;;;;;;4969777;28;20054;-66
2024/02/26 07:32:19;;;;;;;1.85;0.95;;;9.20;96.70;;;;;;4983657;28;20073;-67
2024/02/26 07:34:48;;;;;;;4.35;1.50;;;9.20;96.70;;;;;;4967102;28;20053;-66
2024/02/26 07:37:20;;;;;;;3.58;1.30;;;9.10;96.70;;;;;;4980422;28;20050;-67
2024/02/26 07:39:49;;;;;;;2.30;1.10;;;9.20;96.70;;;;;;4978811;28;20498;-66
2024/02/26 07:42:20;;;;;;;2.65;1.30;;;9.20;96.70;;;;;;4986421;28;20049;-66
2024/02/26 07:44:49;;;;;;;2.10;1.30;;;9.20;96.70;;;;;;4979538;28;20058;-65
2024/02/26 07:47:21;;;;;;;2.75;1.65;;;9.20;96.70;;;;;;4975787;28;20054;-66
2024/02/26 07:49:53;;;;;;;3.08;1.55;;;9.30;96.70;;;;;;4966130;28;20081;-65
2024/02/26 07:52:24;;;;;;;2.85;1.60;;;9.30;96.70;;;;;;4982709;28;20054;-67
2024/02/26 07:54:53;;;;;;;3.15;1.83;;;9.30;96.70;;;;;;4959986;28;20051;-68
2024/02/26 07:57:22;;;;;;;3.05;1.90;;;9.30;96.70;;;;;;4967654;28;20046;-67
2024/02/26 07:59:53;;;;;;;4.22;2.40;;;9.30;96.70;;;;;;4979905;28;20069;-67
2024/02/26 08:02:25;;;;;;;4.28;2.08;;;9.40;96.70;;;;;;4992292;28;20050;-66
2024/02/26 08:04:55;;;;;;;3.35;2.30;;;9.40;96.70;;;;;;4977692;28;20061;-66
2024/02/26 08:07:29;;;;;;;4.63;2.00;;;9.40;96.70;;;;;;4977188;28;20097;-66
2024/02/26 08:10:01;;;;;;;5.93;2.65;;;9.40;96.70;;;;;;4960375;28;20165;-67
2024/02/26 08:12:32;;;;;;;5.47;2.60;;;9.40;96.70;;;;;;4986851;28;20431;-66
2024/02/26 08:15:01;;;;;;;3.95;2.90;;;9.40;96.70;;;;;;5000328;28;20058;-66
2024/02/26 08:17:30;;;;;;;5.43;3.13;;;9.40;96.70;;;;;;4984528;28;20658;-66
2024/02/26 08:20:01;;;;;;;6.25;4.20;;;9.40;96.70;;;;;;4991533;28;20058;-67
2024/02/26 08:22:37;;;;;;;7.22;5.28;;;9.40;96.70;;;;;;4982692;28;20555;-67
2024/02/26 08:25:10;;;;;;;7.43;4.47;;;9.40;96.70;;;;;;4971823;28;20050;-66
2024/02/26 08:27:42;;;;;;;6.85;4.45;;;9.50;96.70;;;;;;5000663;28;20050;-66
2024/02/26 08:30:15;;;;;;;6.07;3.65;;;9.50;96.70;;;;;;4975521;28;20050;-67
2024/02/26 08:32:45;;;;;;;5.32;3.13;;;9.40;96.70;;;;;;4987322;28;20058;-67
2024/02/26 08:35:20;;;;;;;4.05;3.00;;;9.50;96.70;;;;;;4973428;28;20105;-67
2024/02/26 08:37:52;;;;;;;6.95;3.00;;;9.50;96.70;;;;;;4969843;28;20050;-67
2024/02/26 08:40:22;;;;;;;4.43;3.33;;;9.50;96.70;;;;;;5004222;28;20161;-65
2024/02/26 08:42:53;;;;;;;3.78;2.78;;;9.50;96.70;;;;;;4961456;28;20065;-66
2024/02/26 08:45:22;;;;;;;5.68;4.07;;;9.50;96.70;;;;;;4979360;28;20497;-67
2024/02/26 08:47:54;;;;;;;6.80;3.58;;;9.60;96.70;;;;;;4967722;28;20527;-66
2024/02/26 08:50:24;;;;;;;5.18;2.88;;;9.60;96.70;;;;;;4970820;28;20062;-66
2024/02/26 08:52:57;;;;;;;6.05;3.30;;;9.60;96.70;;;;;;4985119;28;20129;-66
2024/02/26 08:55:26;;;;;;;5.63;3.58;;;9.60;96.70;;;;;;4997698;28;20427;-66
2024/02/26 08:57:55;;;;;;;6.90;3.80;;;9.60;96.70;;;;;;4974293;28;20054;-66
2024/02/26 09:00:25;;;;;;;7.07;4.28;;;9.70;96.70;;;;;;4987381;28;20050;-66
2024/02/26 09:02:55;;;;;;;9.23;6.60;;;9.70;96.70;;;;;;4972140;28;20141;-66
2024/02/26 09:05:24;;;;;;;9.90;6.68;;;9.70;96.70;;;;;;4987032;28;20153;-66
2024/02/26 09:07:53;;;;;;;11.77;8.48;;;9.70;96.70;;;;;;4975195;28;20681;-66
2024/02/26 09:10:25;;;;;;;11.15;8.43;;;9.70;96.70;;;;;;4979224;28;20149;-67
2024/02/26 09:12:55;;;;;;;11.38;8.80;;;9.70;96.70;;;;;;4986107;28;20069;-66
2024/02/26 09:15:24;;;;;;;8.55;6.05;;;9.70;96.70;;;;;;4978602;28;20051;-66
2024/02/26 09:17:55;;;;;;;7.53;5.68;;;9.70;96.70;;;;;;4969560;28;20055;-66
2024/02/26 09:20:25;;;;;;;3.58;2.35;;;9.70;96.70;;;;;;4990723;28;20054;-66
2024/02/26 09:22:55;;;;;;;5.53;3.35;;;9.70;96.70;;;;;;4987291;28;20418;-66
2024/02/26 09:25:28;;;;;;;4.97;3.22;;;9.60;96.70;;;;;;4996365;28;20062;-66
2024/02/26 09:27:57;;;;;;;5.07;3.45;;;9.60;96.70;;;;;;4992942;28;20054;-66
2024/02/26 09:30:29;;;;;;;4.03;2.80;;;9.60;96.70;;;;;;4975816;28;20133;-67
2024/02/26 09:32:59;;;;;;;4.95;3.03;;;9.60;96.70;;;;;;4973125;28;20901;-66
2024/02/26 09:35:29;;;;;;;3.97;2.25;;;9.70;96.70;;;;;;4981121;28;20416;-66
2024/02/26 09:37:58;;;;;;;4.63;2.88;;;9.60;96.70;;;;;;4993030;28;20050;-66
2024/02/26 09:40:30;;;;;;;4.90;2.45;;;9.60;96.70;;;;;;4985039;28;20055;-66
2024/02/26 09:43:04;;;;;;;3.20;2.47;;;9.60;96.70;;;;;;5000185;28;20078;-66
2024/02/26 09:45:37;;;;;;;4.00;2.58;;;9.70;96.70;;;;;;4962769;28;20653;-67
2024/02/26 09:48:08;;;;;;;4.82;2.90;;;9.70;96.70;;;;;;4980873;28;20043;-66
2024/02/26 09:50:39;;;;;;;6.22;3.33;;;9.80;96.70;;;;;;4983988;28;20520;-66
2024/02/26 09:53:10;;;;;;;2.72;2.45;;;9.80;96.70;;;;;;4975291;28;20046;-66
2024/02/26 09:55:42;;;;;;;4.18;2.55;;;9.90;96.70;;;;;;4980951;28;20085;-66
2024/02/26 09:58:18;;;;;;;3.55;2.50;;;9.90;96.70;;;;;;4984076;28;20069;-66
2024/02/26 10:00:52;;;;;;;5.67;2.20;;;10.00;96.70;;;;;;4983785;28;20136;-66
2024/02/26 10:03:26;;;;;;;3.55;2.72;;;10.00;96.70;;;;;;4965625;28;20376;-66
2024/02/26 10:05:55;;;;;;;8.18;2.92;;;10.00;96.70;;;;;;4961236;28;20146;-66
2024/02/26 10:08:25;;;;;;;4.50;2.42;;;10.00;96.70;;;;;;4977371;28;20058;-66
2024/02/26 10:10:57;;;;;;;4.57;3.50;;;9.90;96.70;;;;;;4976742;28;20081;-66
2024/02/26 10:13:27;;;;;;;4.68;3.15;;;10.00;96.70;;;;;;4976471;28;20061;-66
2024/02/26 10:15:58;;;;;;;6.65;3.10;;;10.00;96.70;;;;;;4986586;28;20035;-66
2024/02/26 10:18:28;;;;;;;3.92;2.80;;;10.00;96.70;;;;;;4982446;28;20153;-66
2024/02/26 10:21:05;;;;;;;4.30;2.60;;;10.00;96.70;;;;;;4991784;28;20527;-66
2024/02/26 10:23:34;;;;;;;6.28;3.97;;;10.00;96.70;;;;;;4984980;28;20507;-66
2024/02/26 10:26:14;;;;;;;4.75;3.10;;;10.10;96.70;;;;;;4984196;28;20050;-66
2024/02/26 10:28:46;;;;;;;6.70;3.13;;;10.10;96.70;;;;;;4988685;28;20050;-65
2024/02/26 10:31:21;;;;;;;5.05;3.75;;;10.00;96.70;;;;;;4993680;28;20503;-66
2024/02/26 10:33:56;;;;;;;5.68;3.85;;;10.00;96.70;;;;;;4975588;28;20471;-66
2024/02/26 10:36:28;;;;;;;4.80;3.28;;;10.10;96.70;;;;;;4969977;28;20082;-67
2024/02/26 10:39:15;;;;;;;5.55;3.92;;;10.10;96.70;;;;;;4998387;28;20141;-68
2024/02/26 10:41:48;;;;;;;5.50;3.92;;;10.10;96.70;;;;;;4984266;28;20141;-67
2024/02/26 10:44:19;;;;;;;5.72;3.80;;;10.00;96.70;;;;;;4977290;28;20791;-67
2024/02/26 10:46:52;;;;;;;4.88;3.75;;;10.00;96.70;;;;;;5004829;28;20443;-68
2024/02/26 10:49:23;;;;;;;6.57;4.30;;;10.00;96.70;;;;;;4973311;28;20054;-67
2024/02/26 10:51:58;;;;;;;5.07;3.30;;;10.10;96.70;;;;;;4961241;28;20058;-67
2024/02/26 10:54:30;;;;;;;5.97;4.47;;;10.00;96.70;;;;;;4966127;28;20056;-67
2024/02/26 10:57:03;;;;;;;5.10;4.00;;;10.10;96.70;;;;;;4965974;28;20149;-67
2024/02/26 10:59:34;;;;;;;7.57;4.93;;;10.10;96.70;;;;;;4960339;28;20057;-67
2024/02/26 11:02:05;;;;;;;5.25;4.30;;;10.10;96.70;;;;;;4960842;28;20060;-67
2024/02/26 11:04:34;;;;;;;9.15;4.60;;;10.10;96.70;;;;;;4959077;28;20055;-67
2024/02/26 11:07:04;;;;;;;7.43;4.68;;;10.10;96.70;;;;;;4966730;28;20055;-67
2024/02/26 11:09:43;;;;;;;5.63;3.92;;;10.10;96.70;;;;;;4965737;28;20162;-67
2024/02/26 11:12:14;;;;;;;7.80;4.90;;;10.10;96.70;;;;;;4951750;28;20053;-67
2024/02/26 11:14:48;;;;;;;7.03;5.13;;;10.10;96.70;;;;;;4978938;28;20049;-67
2024/02/26 11:17:20;;;;;;;5.72;4.70;;;10.20;96.70;;;;;;4965985;28;20062;-67
2024/02/26 11:19:51;;;;;;;6.40;4.50;;;10.20;96.70;;;;;;4957079;28;20747;-67
2024/02/26 11:22:26;;;;;;;9.90;4.25;;;10.30;96.70;;;;;;4986344;28;20077;-67
2024/02/26 11:25:00;;;;;;;6.55;4.90;;;10.30;96.70;;;;;;4976130;28;20146;-67
2024/02/26 11:27:38;;;;;;;9.50;5.17;;;10.30;96.70;;;;;;4964087;28;20050;-67
2024/02/26 11:30:10;;;;;;;6.93;5.00;;;10.30;96.70;;;;;;4963360;28;20318;-66
2024/02/26 11:32:39;;;;;;;7.13;4.68;;;10.30;96.70;;;;;;4972093;28;20113;-67
2024/02/26 11:35:10;;;;;;;6.32;4.55;;;10.30;96.70;;;;;;4968088;28;20060;-67
2024/02/26 11:37:40;;;;;;;7.03;4.80;;;10.30;96.70;;;;;;4962074;28;20605;-67
2024/02/26 11:40:15;;;;;;;6.65;4.15;;;10.30;96.70;;;;;;4970685;28;20047;-67
2024/02/26 11:42:48;;;;;;;8.43;4.45;;;10.40;96.70;;;;;;4966146;28;20047;-67
2024/02/26 11:45:56;;;;;;;5.75;3.88;;;10.40;96.70;;;;;;4966301;28;20074;-67
2024/02/26 11:48:25;;;;;;;4.70;3.95;;;10.40;96.70;;;;;;4978490;28;20105;-67
2024/02/26 11:50:55;;;;;;;7.68;4.68;;;10.40;96.70;;;;;;4959721;28;20140;-67
2024/02/26 11:53:27;;;;;;;6.88;4.25;;;10.40;96.70;;;;;;4975132;28;20534;-67
2024/02/26 11:56:26;;;;;;;4.80;4.10;;;10.40;96.70;;;;;;4969851;28;20047;-67
2024/02/26 11:59:06;;;;;;;6.30;4.90;;;10.50;96.70;;;;;;4968893;28;20061;-67
2024/02/26 12:01:40;;;;;;;7.28;4.45;;;10.40;96.70;;;;;;4978649;28;20427;-67
2024/02/26 12:04:14;;;;;;;8.20;4.45;;;10.50;96.70;;;;;;4957782;28;20082;-67
2024/02/26 12:06:52;;;;;;;6.57;3.72;;;10.50;96.70;;;;;;4964261;28;20051;-67
2024/02/26 12:09:37;;;;;;;6.60;4.22;;;10.50;96.70;;;;;;4969877;28;20448;-67
2024/02/26 12:12:07;;;;;;;5.85;4.20;;;10.50;96.70;;;;;;4977288;28;20088;-67
2024/02/26 12:14:52;;;;;;;9.65;5.55;;;10.50;96.70;;;;;;4969165;28;20153;-67
2024/02/26 12:17:24;;;;;;;14.45;8.45;;;10.50;96.70;;;;;;4970279;28;20063;-67
2024/02/26 12:19:53;;;;;;;14.02;9.00;;;10.50;96.70;;;;;;4966826;28;20160;-67
2024/02/26 12:22:23;;;;;;;11.77;7.50;;;10.50;96.70;;;;;;4974220;28;20046;-67
2024/02/26 12:25:00;;;;;;;9.75;6.00;;;10.50;96.70;;;;;;4971686;28;20053;-67
2024/02/26 12:27:29;;;;;;;8.18;4.75;;;10.50;96.70;;;;;;4962549;28;20346;-66
2024/02/26 12:30:03;;;;;;;5.88;4.38;;;10.50;96.70;;;;;;4969070;28;20673;-67
2024/02/26 12:32:34;;;;;;;5.40;4.10;;;10.50;96.70;;;;;;4972480;28;20054;-67
2024/02/26 12:35:05;;;;;;;6.78;4.85;;;10.50;96.70;;;;;;4978672;28;20361;-67
2024/02/26 12:37:37;;;;;;;6.50;4.93;;;10.50;96.70;;;;;;4973257;28;20121;-67
2024/02/26 12:40:10;;;;;;;7.57;5.30;;;10.60;96.70;;;;;;4964222;28;20152;-67
2024/02/26 12:42:41;;;;;;;6.43;4.65;;;10.50;96.70;;;;;;4987064;28;20153;-67
2024/02/26 12:45:14;;;;;;;22.85;14.98;;;10.50;96.70;;;;;;4972190;28;20051;-68
2024/02/26 12:47:43;;;;;;;12.68;7.25;;;10.40;96.70;;;;;;4977152;28;20081;-68
2024/02/26 12:50:13;;;;;;;9.10;5.85;;;10.40;96.70;;;;;;4965418;28;20066;-68
2024/02/26 12:52:44;;;;;;;6.70;4.68;;;10.50;96.70;;;;;;4959990;28;20109;-68
2024/02/26 12:55:16;;;;;;;7.93;4.40;;;10.40;96.70;;;;;;4969458;28;20078;-68
2024/02/26 12:57:50;;;;;;;4.97;3.60;;;10.40;96.70;;;;;;4963997;28;20055;-68
2024/02/26 13:00:26;;;;;;;6.63;4.22;;;10.40;96.70;;;;;;4970822;28;20511;-68
2024/02/26 13:02:56;;;;;;;7.05;5.53;;;10.50;96.70;;;;;;4971953;28;20058;-68
2024/02/26 13:05:26;;;;;;;9.25;5.57;;;10.50;96.70;;;;;;4966062;28;20182;-68
2024/02/26 13:07:55;;;;;;;9.38;7.05;;;10.60;96.70;;;;;;4979304;28;20065;-67
2024/02/26 13:10:25;;;;;;;12.43;7.43;;;10.60;96.70;;;;;;4969896;28;20061;-68
2024/02/26 13:12:57;;;;;;;10.00;7.28;;;10.60;96.70;;;;;;4966638;28;20076;-68
2024/02/26 13:15:27;;;;;;;11.80;7.25;;;10.60;96.70;;;;;;4958167;28;20057;-68